Aviation Digital Data Service (ADDS)

Output produced by TAFs form (1553 UTC 29 July 2016)
found at http://www.aviationweather.gov/adds/tafs/
 
KRIC 291412Z 2914/3012 36010KT P6SM BKN014 BKN030 
     FM291600 34006KT P6SM SCT025 BKN050 
     FM292200 03005KT P6SM BKN100